createdAt,value
2023-03-14T00:01:24.649Z,11.50
2023-03-14T00:03:52.266Z,11.50
2023-03-14T00:06:20.283Z,11.50
2023-03-14T00:08:47.971Z,11.50
2023-03-14T00:11:21.394Z,11.40
2023-03-14T00:13:53.273Z,11.40
2023-03-14T00:16:20.815Z,11.50
2023-03-14T00:18:47.979Z,11.50
2023-03-14T00:21:15.376Z,11.50
2023-03-14T00:23:43.530Z,11.40
2023-03-14T00:26:16.376Z,11.50
2023-03-14T00:28:44.551Z,11.50
2023-03-14T00:31:14.202Z,11.50
2023-03-14T00:33:42.049Z,11.60
2023-03-14T00:36:15.062Z,11.60
2023-03-14T00:38:43.781Z,11.60
2023-03-14T00:41:13.676Z,11.60
2023-03-14T00:43:40.988Z,11.60
2023-03-14T00:46:08.421Z,11.50
2023-03-14T00:48:35.776Z,11.60
2023-03-14T00:51:04.903Z,11.60
2023-03-14T00:53:32.033Z,11.70
2023-03-14T00:56:03.973Z,11.60
2023-03-14T00:58:30.814Z,11.60
2023-03-14T01:00:57.979Z,11.70
2023-03-14T01:03:25.634Z,11.70
2023-03-14T01:05:52.568Z,11.70
2023-03-14T01:08:20.059Z,11.60
2023-03-14T01:10:46.981Z,11.60
2023-03-14T01:13:14.139Z,11.50
2023-03-14T01:15:40.970Z,11.50
2023-03-14T01:18:08.306Z,11.40
2023-03-14T01:20:35.235Z,11.50
2023-03-14T01:23:02.388Z,11.40
2023-03-14T01:25:29.514Z,11.40
2023-03-14T01:27:56.478Z,11.40
2023-03-14T01:30:23.341Z,11.40
2023-03-14T01:32:50.302Z,11.30
2023-03-14T01:35:17.622Z,11.30
2023-03-14T01:37:44.761Z,11.30
2023-03-14T01:40:13.022Z,11.30
2023-03-14T01:42:45.194Z,11.30
2023-03-14T01:45:49.913Z,11.20
2023-03-14T01:48:17.179Z,11.20
2023-03-14T01:50:44.468Z,11.20
2023-03-14T01:53:11.385Z,11.10
2023-03-14T01:55:38.806Z,11.10
2023-03-14T01:58:06.577Z,11.10
2023-03-14T02:00:33.765Z,11.10
2023-03-14T02:03:06.721Z,11.00
2023-03-14T02:05:39.447Z,11.10
2023-03-14T02:08:15.645Z,11.00
2023-03-14T02:10:46.113Z,11.00
2023-03-14T02:13:15.053Z,11.00
2023-03-14T02:15:43.791Z,10.90
2023-03-14T02:18:12.181Z,10.90
2023-03-14T02:21:00.189Z,10.80
2023-03-14T02:23:41.148Z,10.70
2023-03-14T02:26:21.492Z,10.60
2023-03-14T02:28:49.403Z,10.50
2023-03-14T02:31:16.773Z,10.40
2023-03-14T02:33:43.938Z,10.40
2023-03-14T02:36:14.502Z,10.30
2023-03-14T02:39:22.595Z,10.30
2023-03-14T02:41:50.322Z,10.20
2023-03-14T02:44:17.210Z,10.20
2023-03-14T02:46:44.459Z,10.30
2023-03-14T02:49:15.688Z,10.20
2023-03-14T02:51:44.542Z,10.30
2023-03-14T02:54:12.278Z,10.20
2023-03-14T02:56:39.202Z,10.30
2023-03-14T02:59:06.338Z,10.30
2023-03-14T03:01:35.172Z,10.30
2023-03-14T03:04:02.082Z,10.40
2023-03-14T03:06:29.163Z,10.40
2023-03-14T03:08:56.449Z,10.40
2023-03-14T03:11:23.385Z,10.40
2023-03-14T03:13:50.279Z,10.40
2023-03-14T03:16:17.272Z,10.40
2023-03-14T03:18:44.354Z,10.40
2023-03-14T03:21:11.261Z,10.40
2023-03-14T03:23:38.210Z,10.40
2023-03-14T03:26:05.343Z,10.40
2023-03-14T03:28:32.183Z,10.50
2023-03-14T03:30:59.131Z,10.50
2023-03-14T03:33:26.080Z,10.50
2023-03-14T03:35:53.585Z,10.40
2023-03-14T03:38:21.289Z,10.50
2023-03-14T03:40:48.153Z,10.40
2023-03-14T03:43:15.289Z,10.50
2023-03-14T03:45:42.153Z,10.50
2023-03-14T03:48:09.073Z,10.40
2023-03-14T03:50:36.130Z,10.40
2023-03-14T03:53:03.604Z,10.40
2023-03-14T03:55:30.469Z,10.30
2023-03-14T03:57:57.392Z,10.40
2023-03-14T04:00:24.806Z,10.40
2023-03-14T04:02:51.875Z,10.40
2023-03-14T04:05:18.828Z,10.40
2023-03-14T04:07:45.783Z,10.50
2023-03-14T04:10:12.719Z,10.50
2023-03-14T04:12:39.666Z,10.50
2023-03-14T04:15:07.239Z,10.50
2023-03-14T04:17:34.184Z,10.40
2023-03-14T04:20:01.072Z,10.50
2023-03-14T04:22:28.049Z,10.50
2023-03-14T04:24:54.965Z,10.50
2023-03-14T04:27:21.804Z,10.50
2023-03-14T04:29:48.923Z,10.50
2023-03-14T04:32:16.054Z,10.50
2023-03-14T04:34:43.196Z,10.50
2023-03-14T04:37:10.108Z,10.50
2023-03-14T04:39:37.102Z,10.40
2023-03-14T04:42:04.207Z,10.40
2023-03-14T04:44:30.994Z,10.40
2023-03-14T04:46:58.118Z,10.30
2023-03-14T04:49:25.171Z,10.30
2023-03-14T04:51:52.241Z,10.20
2023-03-14T04:54:19.666Z,10.20
2023-03-14T04:56:46.541Z,10.20
2023-03-14T04:59:13.443Z,10.20
2023-03-14T05:01:40.538Z,10.20
2023-03-14T05:04:07.468Z,10.20
2023-03-14T05:06:34.486Z,10.30
2023-03-14T05:09:01.980Z,10.20
2023-03-14T05:11:29.395Z,10.20
2023-03-14T05:13:56.383Z,10.10
2023-03-14T05:16:23.304Z,10.10
2023-03-14T05:18:50.930Z,10.00
2023-03-14T05:21:18.009Z,9.90
2023-03-14T05:23:44.832Z,9.80
2023-03-14T05:26:11.860Z,9.80
2023-03-14T05:28:38.716Z,9.70
2023-03-14T05:31:11.887Z,9.70
2023-03-14T05:33:39.391Z,9.70
2023-03-14T05:36:07.312Z,9.70
2023-03-14T05:38:34.717Z,9.60
2023-03-14T05:41:01.938Z,9.60
2023-03-14T05:43:28.919Z,9.60
2023-03-14T05:45:56.817Z,9.60
2023-03-14T05:48:23.943Z,9.50
2023-03-14T05:51:00.327Z,9.60
2023-03-14T05:53:27.244Z,9.50
2023-03-14T05:55:56.787Z,9.50
2023-03-14T05:58:25.249Z,9.50
2023-03-14T06:00:52.443Z,9.50
2023-03-14T06:03:19.869Z,9.50
2023-03-14T06:05:47.489Z,9.40
2023-03-14T06:08:16.825Z,9.40
2023-03-14T06:10:46.290Z,9.40
2023-03-14T06:13:13.287Z,9.50
2023-03-14T06:15:40.230Z,9.50
2023-03-14T06:18:07.161Z,9.60
2023-03-14T06:20:36.490Z,9.60
2023-03-14T06:23:03.470Z,9.60
2023-03-14T06:25:30.724Z,9.60
2023-03-14T06:27:57.656Z,9.70
2023-03-14T06:30:24.914Z,9.60
2023-03-14T06:32:51.965Z,9.60
2023-03-14T06:35:18.978Z,9.70
2023-03-14T06:37:45.880Z,9.70
2023-03-14T06:40:18.822Z,9.70
2023-03-14T06:42:47.291Z,9.70
2023-03-14T06:45:15.233Z,9.70
2023-03-14T06:47:42.162Z,9.70
2023-03-14T06:50:10.840Z,9.80
2023-03-14T06:52:38.458Z,9.80
2023-03-14T06:55:05.988Z,9.90
2023-03-14T06:57:33.030Z,9.90
2023-03-14T06:59:59.896Z,9.90
2023-03-14T07:02:39.740Z,10.00
2023-03-14T07:05:07.501Z,10.00
2023-03-14T07:07:34.586Z,10.10
2023-03-14T07:10:01.464Z,10.20
2023-03-14T07:12:28.355Z,10.20
2023-03-14T07:14:55.638Z,10.30
2023-03-14T07:17:23.582Z,10.30
2023-03-14T07:19:50.482Z,10.30
2023-03-14T07:22:17.411Z,10.30
2023-03-14T07:24:44.234Z,10.20
2023-03-14T07:27:11.775Z,10.30
2023-03-14T07:29:38.776Z,10.30
2023-03-14T07:32:05.685Z,10.40
2023-03-14T07:34:32.632Z,10.40
2023-03-14T07:36:59.633Z,10.50
2023-03-14T07:39:26.844Z,10.50
2023-03-14T07:41:54.267Z,10.50
2023-03-14T07:44:21.252Z,10.50
2023-03-14T07:46:48.214Z,10.60
2023-03-14T07:49:15.129Z,10.60
2023-03-14T07:51:42.311Z,10.70
2023-03-14T07:54:09.242Z,10.70
2023-03-14T07:56:36.164Z,10.80
2023-03-14T07:59:04.535Z,10.90
2023-03-14T08:01:31.774Z,10.90
2023-03-14T08:03:59.092Z,11.00
2023-03-14T08:06:26.398Z,11.10
2023-03-14T08:08:53.266Z,11.20
2023-03-14T08:11:20.154Z,11.20
2023-03-14T08:13:50.828Z,11.30
2023-03-14T08:16:19.154Z,11.30
2023-03-14T08:18:47.093Z,11.40
2023-03-14T08:21:14.360Z,11.40
2023-03-14T08:23:42.026Z,11.40
2023-03-14T08:26:09.503Z,11.60
2023-03-14T08:28:36.415Z,11.70
2023-03-14T08:31:04.405Z,11.70
2023-03-14T08:33:31.635Z,11.80
2023-03-14T08:36:00.580Z,11.80
2023-03-14T08:38:28.491Z,11.70
2023-03-14T08:41:00.741Z,11.60
2023-03-14T08:43:29.024Z,11.50
2023-03-14T08:45:59.785Z,11.40
2023-03-14T08:48:27.332Z,11.50
2023-03-14T08:50:54.273Z,11.40
2023-03-14T08:53:23.719Z,11.00
2023-03-14T08:55:55.112Z,10.60
2023-03-14T08:58:24.868Z,10.40
2023-03-14T09:00:52.188Z,10.10
2023-03-14T09:03:24.639Z,10.00
2023-03-14T09:05:52.328Z,9.90
2023-03-14T09:08:19.374Z,9.70
2023-03-14T09:10:46.313Z,9.70
2023-03-14T09:13:13.224Z,9.60
2023-03-14T09:15:40.195Z,9.60
2023-03-14T09:18:07.354Z,9.50
2023-03-14T09:20:34.239Z,9.50
2023-03-14T09:23:01.186Z,9.40
2023-03-14T09:25:28.207Z,9.40
2023-03-14T09:27:55.092Z,9.20
2023-03-14T09:30:22.036Z,9.20
2023-03-14T09:32:49.010Z,9.30
2023-03-14T09:35:15.993Z,9.30
2023-03-14T09:37:44.096Z,9.40
2023-03-14T09:40:16.827Z,9.50
2023-03-14T09:42:44.195Z,9.60
2023-03-14T09:45:28.389Z,9.70
2023-03-14T09:47:59.785Z,9.60
2023-03-14T09:50:31.812Z,9.50
2023-03-14T09:53:04.090Z,9.40
2023-03-14T09:55:31.530Z,9.30
2023-03-14T09:58:03.909Z,9.10
2023-03-14T10:00:32.587Z,8.90
2023-03-14T10:03:14.459Z,8.70
2023-03-14T10:05:42.864Z,8.30
2023-03-14T10:08:13.852Z,8.20
2023-03-14T10:10:41.655Z,8.10
2023-03-14T10:13:19.838Z,8.10
2023-03-14T10:15:55.325Z,8.10
2023-03-14T10:18:25.401Z,8.20
2023-03-14T10:21:08.681Z,8.20
2023-03-14T10:23:36.006Z,8.30
2023-03-14T10:26:14.418Z,8.20
2023-03-14T10:28:49.202Z,8.20
2023-03-14T10:31:16.502Z,8.10
2023-03-14T10:33:58.062Z,8.10
2023-03-14T10:36:29.186Z,8.10
2023-03-14T10:39:23.248Z,8.10
2023-03-14T10:41:53.570Z,8.20
2023-03-14T10:44:24.049Z,8.30
2023-03-14T10:47:21.305Z,8.10
2023-03-14T10:49:48.271Z,8.10
2023-03-14T10:52:31.514Z,8.30
2023-03-14T10:55:15.099Z,8.60
2023-03-14T10:57:43.120Z,8.70
2023-03-14T11:00:22.155Z,8.50
2023-03-14T11:03:04.510Z,8.50
2023-03-14T11:06:10.425Z,8.50
2023-03-14T11:08:40.350Z,8.40
2023-03-14T11:11:30.369Z,8.50
2023-03-14T11:14:19.146Z,8.40
2023-03-14T11:16:45.770Z,8.30
2023-03-14T11:19:41.684Z,8.20
2023-03-14T11:22:22.528Z,8.10
2023-03-14T11:24:59.589Z,8.00
2023-03-14T11:27:44.718Z,8.00
2023-03-14T11:30:47.243Z,8.20
2023-03-14T11:33:31.591Z,8.20
2023-03-14T11:36:08.833Z,8.30
2023-03-14T11:38:41.396Z,8.10
2023-03-14T11:41:23.567Z,8.10
2023-03-14T11:43:56.292Z,8.10
2023-03-14T11:46:30.179Z,8.30
2023-03-14T11:49:06.391Z,8.50
2023-03-14T11:51:39.662Z,8.80
2023-03-14T11:54:19.526Z,8.80
2023-03-14T11:56:54.818Z,8.70
2023-03-14T11:59:29.816Z,8.70
2023-03-14T12:02:05.567Z,8.70
2023-03-14T12:04:51.069Z,8.60
2023-03-14T12:07:46.654Z,8.50
2023-03-14T12:10:13.493Z,8.40
2023-03-14T12:12:40.332Z,8.30
2023-03-14T12:15:21.222Z,8.20
2023-03-14T12:17:53.684Z,8.00
2023-03-14T12:20:25.492Z,7.90
2023-03-14T12:23:02.816Z,7.80
2023-03-14T12:25:33.003Z,7.90
2023-03-14T12:28:32.094Z,8.00
2023-03-14T12:31:37.036Z,8.20
2023-03-14T12:34:11.077Z,8.50
2023-03-14T12:36:54.541Z,8.60
2023-03-14T12:40:02.448Z,8.60
2023-03-14T12:42:44.552Z,8.50
2023-03-14T12:45:11.930Z,8.40
2023-03-14T12:47:38.700Z,8.10
2023-03-14T12:50:20.556Z,7.90
2023-03-14T12:53:10.644Z,7.90
2023-03-14T12:55:45.201Z,7.80
2023-03-14T12:58:35.878Z,8.00
2023-03-14T13:01:08.362Z,8.10
2023-03-14T13:03:57.135Z,8.10
2023-03-14T13:06:54.857Z,8.20
2023-03-14T13:09:30.957Z,8.20
2023-03-14T13:12:12.443Z,8.30
2023-03-14T13:14:45.926Z,8.50
2023-03-14T13:17:36.174Z,8.70
2023-03-14T13:20:10.639Z,8.90
2023-03-14T13:22:40.129Z,9.00
2023-03-14T13:25:11.411Z,9.20
2023-03-14T13:27:38.711Z,9.40
2023-03-14T13:30:19.412Z,9.30
2023-03-14T13:32:48.708Z,9.60
2023-03-14T13:35:27.555Z,9.70
2023-03-14T13:38:18.067Z,9.80
2023-03-14T13:40:46.348Z,9.90
2023-03-14T13:43:24.559Z,9.80
2023-03-14T13:46:04.415Z,9.80
2023-03-14T13:48:33.882Z,9.80
2023-03-14T13:51:05.515Z,9.70
2023-03-14T13:53:33.169Z,9.60
2023-03-14T13:56:04.304Z,9.60
2023-03-14T13:58:33.109Z,9.60
2023-03-14T14:01:07.750Z,9.70
2023-03-14T14:03:39.880Z,9.70
2023-03-14T14:06:22.040Z,9.70
2023-03-14T14:08:49.027Z,9.60
2023-03-14T14:11:26.114Z,9.50
2023-03-14T14:13:58.250Z,9.60
2023-03-14T14:16:27.839Z,9.70
2023-03-14T14:18:57.010Z,9.70
2023-03-14T14:21:24.982Z,9.70
2023-03-14T14:23:51.933Z,9.80
2023-03-14T14:26:20.820Z,9.70
2023-03-14T14:28:59.006Z,9.60
2023-03-14T14:31:26.485Z,9.50
2023-03-14T14:34:02.219Z,9.60
2023-03-14T14:36:45.677Z,9.70
2023-03-14T14:39:22.401Z,9.70
2023-03-14T14:41:51.090Z,9.60
2023-03-14T14:44:23.350Z,9.60
2023-03-14T14:46:50.687Z,9.50
2023-03-14T14:49:20.585Z,9.40
2023-03-14T14:51:51.961Z,9.30
2023-03-14T14:54:21.212Z,9.20
2023-03-14T14:56:54.278Z,9.20
2023-03-14T14:59:29.938Z,9.20
2023-03-14T15:02:00.109Z,9.10
2023-03-14T15:04:28.052Z,9.00
2023-03-14T15:06:55.054Z,8.90
2023-03-14T15:09:22.569Z,8.70
2023-03-14T15:11:49.922Z,8.70
2023-03-14T15:14:17.696Z,8.70
2023-03-14T15:16:44.730Z,8.60
2023-03-14T15:19:24.044Z,8.60
2023-03-14T15:21:55.095Z,8.70
2023-03-14T15:24:22.934Z,8.80
2023-03-14T15:26:49.898Z,8.70
2023-03-14T15:29:16.949Z,8.60
2023-03-14T15:31:45.089Z,8.60
2023-03-14T15:34:12.418Z,8.60
2023-03-14T15:36:40.044Z,8.60
2023-03-14T15:39:08.109Z,8.60
2023-03-14T15:41:35.213Z,8.60
2023-03-14T15:44:02.124Z,8.50
2023-03-14T15:46:31.025Z,8.50
2023-03-14T15:48:58.267Z,8.40
2023-03-14T15:51:25.199Z,8.40
2023-03-14T15:53:52.825Z,8.30
2023-03-14T15:56:25.893Z,8.10
2023-03-14T15:58:53.129Z,8.10
2023-03-14T16:01:20.370Z,8.00
2023-03-14T16:03:47.659Z,8.00
2023-03-14T16:06:15.317Z,7.90
2023-03-14T16:08:43.448Z,7.90
2023-03-14T16:11:12.442Z,7.90
2023-03-14T16:13:39.543Z,7.80
2023-03-14T16:16:08.069Z,7.90
2023-03-14T16:18:37.637Z,7.90
2023-03-14T16:21:08.839Z,7.80
2023-03-14T16:23:36.503Z,7.80
2023-03-14T16:26:09.347Z,7.70
2023-03-14T16:28:36.945Z,7.70
2023-03-14T16:31:06.300Z,7.70
2023-03-14T16:33:35.039Z,7.60
2023-03-14T16:36:08.528Z,7.60
2023-03-14T16:38:38.108Z,7.60
2023-03-14T16:41:07.724Z,7.50
2023-03-14T16:43:37.414Z,7.40
2023-03-14T16:46:06.526Z,7.40
2023-03-14T16:48:33.760Z,7.40
2023-03-14T16:51:00.696Z,7.40
2023-03-14T16:53:30.007Z,7.30
2023-03-14T16:55:59.612Z,7.20
2023-03-14T16:58:26.878Z,7.20
2023-03-14T17:00:53.895Z,7.20
2023-03-14T17:03:20.861Z,7.20
2023-03-14T17:05:53.146Z,7.10
2023-03-14T17:08:21.056Z,7.00
2023-03-14T17:10:48.268Z,7.00
2023-03-14T17:13:15.583Z,7.00
2023-03-14T17:15:47.085Z,7.00
2023-03-14T17:18:14.599Z,7.00
2023-03-14T17:20:41.467Z,6.90
2023-03-14T17:23:09.179Z,6.80
2023-03-14T17:25:37.875Z,6.80
2023-03-14T17:28:06.442Z,6.80
2023-03-14T17:30:34.062Z,6.70
2023-03-14T17:33:01.037Z,6.70
2023-03-14T17:35:28.133Z,6.60
2023-03-14T17:37:55.027Z,6.60
2023-03-14T17:40:22.120Z,6.60
2023-03-14T17:42:50.472Z,6.60
2023-03-14T17:45:17.695Z,6.50
2023-03-14T17:47:45.185Z,6.50
2023-03-14T17:50:12.709Z,6.50
2023-03-14T17:52:40.283Z,6.50
2023-03-14T17:55:08.721Z,6.50
2023-03-14T17:57:40.652Z,6.40
2023-03-14T18:00:11.956Z,6.40
2023-03-14T18:02:41.502Z,6.30
2023-03-14T18:05:09.586Z,6.30
2023-03-14T18:07:37.967Z,6.30
2023-03-14T18:10:06.478Z,6.20
2023-03-14T18:12:33.460Z,6.20
2023-03-14T18:15:01.462Z,6.10
2023-03-14T18:17:28.380Z,6.10
2023-03-14T18:19:56.687Z,6.20
2023-03-14T18:22:24.484Z,6.20
2023-03-14T18:24:51.906Z,6.10
2023-03-14T18:27:18.897Z,6.00
2023-03-14T18:29:45.852Z,6.00
2023-03-14T18:32:12.845Z,6.00
2023-03-14T18:34:39.813Z,5.90
2023-03-14T18:37:07.370Z,5.90
2023-03-14T18:39:34.892Z,5.90
2023-03-14T18:42:02.114Z,5.90
2023-03-14T18:44:29.004Z,5.90
2023-03-14T18:46:56.015Z,5.90
2023-03-14T18:49:23.540Z,5.80
2023-03-14T18:51:50.970Z,5.90
2023-03-14T18:54:18.033Z,5.90
2023-03-14T18:56:45.017Z,5.80
2023-03-14T18:59:12.831Z,5.70
2023-03-14T19:01:39.809Z,5.70
2023-03-14T19:04:09.498Z,5.60
2023-03-14T19:06:37.913Z,5.60
2023-03-14T19:09:06.101Z,5.60
2023-03-14T19:11:33.340Z,5.60
2023-03-14T19:14:00.638Z,5.60
2023-03-14T19:16:27.970Z,5.50
2023-03-14T19:18:58.217Z,5.60
2023-03-14T19:21:34.085Z,5.50
2023-03-14T19:24:02.230Z,5.50
2023-03-14T19:26:32.727Z,5.40
2023-03-14T19:29:00.239Z,5.40
2023-03-14T19:31:27.621Z,5.20
2023-03-14T19:33:54.544Z,5.20
2023-03-14T19:36:30.422Z,5.10
2023-03-14T19:38:59.065Z,5.10
2023-03-14T19:41:26.374Z,5.10
2023-03-14T19:43:53.440Z,5.10
2023-03-14T19:46:21.809Z,5.10
2023-03-14T19:48:49.860Z,5.10
2023-03-14T19:51:17.297Z,5.00
2023-03-14T19:53:44.555Z,4.90
2023-03-14T19:56:11.756Z,4.90
2023-03-14T19:58:39.938Z,5.00
2023-03-14T20:01:08.866Z,4.90
2023-03-14T20:03:36.694Z,4.80
2023-03-14T20:06:12.375Z,4.70
2023-03-14T20:08:39.599Z,4.70
2023-03-14T20:11:09.011Z,4.70
2023-03-14T20:13:35.989Z,4.60
2023-03-14T20:16:10.480Z,4.50
2023-03-14T20:18:37.964Z,4.60
2023-03-14T20:21:10.040Z,4.50
2023-03-14T20:23:37.218Z,4.50
2023-03-14T20:26:04.439Z,4.50
2023-03-14T20:28:32.192Z,4.50
2023-03-14T20:30:59.129Z,4.50
2023-03-14T20:33:26.405Z,4.40
2023-03-14T20:35:58.512Z,4.30
2023-03-14T20:38:27.368Z,4.20
2023-03-14T20:40:58.954Z,4.20
2023-03-14T20:43:26.405Z,4.10
2023-03-14T20:45:55.323Z,4.00
2023-03-14T20:48:23.168Z,3.90
2023-03-14T20:50:50.129Z,3.90
2023-03-14T20:53:17.876Z,3.90
2023-03-14T20:55:45.220Z,3.80
2023-03-14T20:58:13.161Z,3.70
2023-03-14T21:00:50.811Z,3.70
2023-03-14T21:03:18.383Z,3.60
2023-03-14T21:05:46.872Z,3.50
2023-03-14T21:08:20.114Z,3.50
2023-03-14T21:10:48.329Z,3.40
2023-03-14T21:13:15.765Z,3.30
2023-03-14T21:15:43.347Z,3.20
2023-03-14T21:18:10.589Z,3.20
2023-03-14T21:20:39.304Z,3.20
2023-03-14T21:23:06.658Z,3.10
2023-03-14T21:25:33.945Z,3.10
2023-03-14T21:28:04.077Z,3.00
2023-03-14T21:30:33.314Z,3.00
2023-03-14T21:33:00.525Z,2.90
2023-03-14T21:35:27.465Z,2.90
2023-03-14T21:37:54.595Z,2.90
2023-03-14T21:40:22.423Z,2.90
2023-03-14T21:42:49.360Z,2.90
2023-03-14T21:45:16.858Z,2.90
2023-03-14T21:47:47.475Z,3.00
2023-03-14T21:50:15.198Z,3.10
2023-03-14T21:52:46.191Z,3.10
2023-03-14T21:55:17.777Z,3.20
2023-03-14T21:57:49.323Z,3.10
2023-03-14T22:00:18.280Z,3.20
2023-03-14T22:02:58.123Z,3.20
2023-03-14T22:05:30.854Z,3.30
2023-03-14T22:07:57.767Z,3.30
2023-03-14T22:10:24.785Z,3.30
2023-03-14T22:12:51.713Z,3.40
2023-03-14T22:15:18.716Z,3.50
2023-03-14T22:17:45.776Z,3.60
2023-03-14T22:20:14.092Z,3.60
2023-03-14T22:22:41.437Z,3.70
2023-03-14T22:25:09.251Z,3.80
2023-03-14T22:27:36.213Z,3.80
2023-03-14T22:30:03.519Z,3.90
2023-03-14T22:32:31.248Z,4.00
2023-03-14T22:34:58.150Z,4.00
2023-03-14T22:37:25.621Z,4.00
2023-03-14T22:39:52.590Z,4.10
2023-03-14T22:42:19.634Z,4.10
2023-03-14T22:44:46.562Z,4.10
2023-03-14T22:47:13.453Z,4.20
2023-03-14T22:49:40.726Z,4.20
2023-03-14T22:52:07.636Z,4.30
2023-03-14T22:54:34.533Z,4.30
2023-03-14T22:57:01.409Z,4.30
2023-03-14T22:59:28.342Z,4.30
2023-03-14T23:01:55.768Z,4.40
2023-03-14T23:04:23.159Z,4.40
2023-03-14T23:06:50.004Z,4.40
2023-03-14T23:09:17.640Z,4.10
2023-03-14T23:11:45.036Z,3.90
2023-03-14T23:14:11.931Z,3.70
2023-03-14T23:16:40.894Z,3.40
2023-03-14T23:19:09.907Z,3.30
2023-03-14T23:21:37.485Z,3.30
2023-03-14T23:24:06.014Z,3.20
2023-03-14T23:26:35.733Z,3.20
2023-03-14T23:29:05.546Z,3.10
2023-03-14T23:31:33.663Z,3.20
2023-03-14T23:34:00.539Z,3.10
2023-03-14T23:36:27.722Z,3.00
2023-03-14T23:38:54.673Z,3.10
2023-03-14T23:41:21.584Z,3.10
2023-03-14T23:43:48.866Z,3.10
2023-03-14T23:46:16.894Z,3.00
2023-03-14T23:48:46.918Z,3.00
2023-03-14T23:51:14.939Z,3.00
2023-03-14T23:53:42.591Z,3.00
2023-03-14T23:56:14.829Z,3.00
2023-03-14T23:58:42.640Z,3.00
